Time;durP1;ratioP1;P1;durP2;ratioP2;P2;SDS_P1;SDS_P2;PMS_P1;PMS_P2;Temp;Humidity;BMP_temperature;BMP_pressure;BME280_temperature;BME280_humidity;BME280_pressure;Samples;Min_cycle;Max_cycle;Signal;HPM_P1;HPM_P2
2022/04/24 00:00:11;;;;;;;7.93;6.25;;;9.40;99.90;;;;;;5124113;27;20077;-71
2022/04/24 00:02:39;;;;;;;8.27;6.75;;;9.40;99.90;;;;;;5122021;28;20035;-71
2022/04/24 00:05:05;;;;;;;6.85;6.15;;;9.40;99.90;;;;;;5123819;28;20035;-71
2022/04/24 00:07:31;;;;;;;7.30;5.82;;;9.30;99.90;;;;;;5104314;27;20244;-72
2022/04/24 00:09:57;;;;;;;7.03;6.32;;;9.30;99.90;;;;;;5129678;27;20054;-72
2022/04/24 00:12:23;;;;;;;6.97;5.80;;;9.20;99.90;;;;;;5123588;27;20098;-71
2022/04/24 00:14:49;;;;;;;7.95;6.25;;;9.20;99.90;;;;;;5131053;27;20031;-71
2022/04/24 00:17:16;;;;;;;7.95;5.82;;;9.20;99.90;;;;;;5112487;28;20031;-70
2022/04/24 00:19:42;;;;;;;7.18;6.28;;;9.20;99.90;;;;;;5122429;28;20098;-72
2022/04/24 00:22:08;;;;;;;7.03;5.43;;;9.20;99.90;;;;;;5105468;27;20038;-71
2022/04/24 00:24:34;;;;;;;7.82;6.45;;;9.20;99.90;;;;;;5125046;27;20361;-71
2022/04/24 00:27:05;;;;;;;8.18;6.25;;;9.40;99.90;;;;;;5097466;27;20051;-71
2022/04/24 00:29:31;;;;;;;7.13;6.43;;;9.10;99.90;;;;;;5122579;28;20191;-69
2022/04/24 00:31:57;;;;;;;10.23;6.50;;;9.20;99.90;;;;;;5143265;27;20045;-71
2022/04/24 00:34:22;;;;;;;6.40;5.63;;;9.10;99.90;;;;;;5125822;27;20121;-71
2022/04/24 00:36:54;;;;;;;8.32;6.50;;;9.10;99.90;;;;;;5127143;27;20217;-71
2022/04/24 00:39:20;;;;;;;8.15;6.95;;;9.10;99.90;;;;;;5092929;27;20081;-70
2022/04/24 00:41:46;;;;;;;7.35;5.78;;;9.10;99.90;;;;;;5127274;27;20027;-70
2022/04/24 00:44:12;;;;;;;7.10;6.40;;;9.10;99.90;;;;;;5146372;27;20031;-70
2022/04/24 00:46:45;;;;;;;6.85;6.10;;;9.10;99.90;;;;;;5146908;27;20027;-70
2022/04/24 00:49:12;;;;;;;9.18;7.45;;;9.10;99.90;;;;;;5116450;27;20042;-72
2022/04/24 00:51:43;;;;;;;7.93;6.68;;;9.10;99.90;;;;;;5126532;27;20059;-72
2022/04/24 00:57:06;;;;;;;7.03;6.32;;;9.10;99.90;;;;;;5147337;27;20439;-71
2022/04/24 00:59:32;;;;;;;8.43;6.93;;;9.00;99.90;;;;;;5117364;27;20027;-70
2022/04/24 01:01:59;;;;;;;9.00;5.95;;;9.10;99.90;;;;;;5108779;27;20071;-71
2022/04/24 01:04:25;;;;;;;8.18;6.80;;;9.00;99.90;;;;;;5119011;27;20229;-71
2022/04/24 01:06:51;;;;;;;8.40;6.60;;;9.00;99.90;;;;;;5125864;27;20038;-71
2022/04/24 01:09:21;;;;;;;7.45;6.50;;;9.00;99.90;;;;;;5124389;27;20329;-70
2022/04/24 01:11:49;;;;;;;6.82;5.40;;;9.00;99.90;;;;;;5144631;27;20214;-71
2022/04/24 01:14:16;;;;;;;7.85;6.25;;;9.00;99.90;;;;;;5146116;27;20039;-71
2022/04/24 01:16:45;;;;;;;7.00;6.30;;;9.00;99.90;;;;;;5116342;27;20031;-70
2022/04/24 01:19:12;;;;;;;8.95;6.80;;;9.00;99.90;;;;;;5107639;27;20175;-72
2022/04/24 01:21:40;;;;;;;7.40;6.60;;;8.90;99.90;;;;;;5127304;27;20071;-71
2022/04/24 01:24:07;;;;;;;7.32;6.50;;;8.90;99.90;;;;;;5110308;27;20270;-71
2022/04/24 01:26:34;;;;;;;8.02;6.00;;;8.90;99.90;;;;;;5120160;27;20031;-71
2022/04/24 01:29:00;;;;;;;8.27;6.15;;;8.80;99.90;;;;;;5129278;27;20015;-71
2022/04/24 01:31:26;;;;;;;7.72;6.85;;;8.80;99.90;;;;;;5143253;27;20038;-70
2022/04/24 01:33:51;;;;;;;8.52;6.35;;;8.80;99.90;;;;;;5146729;27;20035;-71
2022/04/24 01:36:17;;;;;;;8.70;6.78;;;9.00;99.90;;;;;;5124108;27;20031;-71
2022/04/24 01:38:43;;;;;;;7.93;6.40;;;8.80;99.90;;;;;;5125679;27;20102;-70
2022/04/24 01:41:09;;;;;;;7.00;6.22;;;8.80;99.90;;;;;;5116697;27;20030;-71
2022/04/24 01:43:38;;;;;;;6.70;6.00;;;8.80;99.90;;;;;;5128906;27;20075;-71
2022/04/24 01:46:08;;;;;;;7.60;5.70;;;8.80;99.90;;;;;;5129941;27;20030;-71
2022/04/24 01:48:34;;;;;;;8.10;6.20;;;8.70;99.90;;;;;;5145816;27;20222;-71
2022/04/24 01:51:01;;;;;;;7.47;6.25;;;8.70;99.90;;;;;;5104702;27;20026;-71
2022/04/24 01:53:28;;;;;;;8.23;6.65;;;8.80;99.90;;;;;;5128750;27;20213;-71
2022/04/24 01:55:57;;;;;;;9.18;6.50;;;8.80;99.90;;;;;;5142883;27;20039;-71
2022/04/24 01:58:24;;;;;;;7.10;6.32;;;8.70;99.90;;;;;;5125315;27;20103;-71
2022/04/24 02:00:50;;;;;;;6.75;5.80;;;8.70;99.90;;;;;;5124306;27;20039;-71
2022/04/24 02:03:16;;;;;;;7.22;6.30;;;8.60;99.90;;;;;;5124502;27;20183;-71
2022/04/24 02:05:42;;;;;;;12.02;6.97;;;8.60;99.90;;;;;;5119369;27;20114;-70
2022/04/24 02:08:08;;;;;;;8.65;7.32;;;8.40;99.90;;;;;;5110885;27;20059;-70
2022/04/24 02:10:33;;;;;;;8.77;7.28;;;8.20;99.90;;;;;;5121810;27;20031;-71
2022/04/24 02:12:59;;;;;;;8.40;6.80;;;8.10;99.90;;;;;;5125882;27;20389;-71
2022/04/24 02:15:25;;;;;;;8.52;6.82;;;7.90;99.90;;;;;;5123381;27;20308;-71
2022/04/24 02:17:51;;;;;;;8.70;7.32;;;7.90;99.90;;;;;;5125236;27;20039;-70
2022/04/24 02:20:19;;;;;;;8.30;7.05;;;8.20;99.90;;;;;;5123995;27;20054;-70
2022/04/24 02:22:44;;;;;;;9.18;7.32;;;7.80;99.90;;;;;;5115292;27;20122;-71
2022/04/24 02:25:10;;;;;;;8.30;7.13;;;7.70;99.90;;;;;;5138617;27;20095;-71
2022/04/24 02:27:36;;;;;;;8.82;7.28;;;7.70;99.90;;;;;;5109671;27;20317;-71
2022/04/24 02:30:02;;;;;;;8.35;7.20;;;7.60;99.90;;;;;;5123665;27;20042;-71
2022/04/24 02:32:27;;;;;;;8.02;7.22;;;7.60;99.90;;;;;;5099135;27;20053;-71
2022/04/24 02:34:53;;;;;;;7.78;6.93;;;7.50;99.90;;;;;;5123972;27;20031;-71
2022/04/24 02:37:19;;;;;;;10.93;6.95;;;7.50;99.90;;;;;;5090565;27;20310;-71
2022/04/24 02:39:44;;;;;;;8.60;7.32;;;7.40;99.90;;;;;;5090565;27;20087;-71
2022/04/24 02:42:10;;;;;;;9.63;7.38;;;7.50;99.90;;;;;;5127695;27;20122;-71
2022/04/24 02:44:36;;;;;;;12.38;7.20;;;7.40;99.90;;;;;;5110621;27;20035;-70
2022/04/24 02:47:02;;;;;;;10.10;7.75;;;7.40;99.90;;;;;;5107143;27;20031;-70
2022/04/24 02:49:28;;;;;;;9.23;7.78;;;7.40;99.90;;;;;;5123963;27;20242;-70
2022/04/24 02:51:53;;;;;;;10.85;8.02;;;7.30;99.90;;;;;;5141777;27;20043;-70
2022/04/24 02:54:19;;;;;;;9.02;6.90;;;7.30;99.90;;;;;;5151164;27;20038;-70
2022/04/24 02:56:45;;;;;;;9.52;7.88;;;7.30;99.90;;;;;;5107026;27;20259;-70
2022/04/24 02:59:11;;;;;;;9.48;6.93;;;7.30;99.90;;;;;;5124815;27;20042;-70
2022/04/24 03:01:39;;;;;;;9.27;8.02;;;7.30;99.90;;;;;;5123692;27;20098;-71
2022/04/24 03:04:05;;;;;;;9.32;7.07;;;7.30;99.90;;;;;;5130616;27;20059;-70
2022/04/24 03:06:30;;;;;;;8.98;7.03;;;7.20;99.90;;;;;;5117112;27;20074;-70
2022/04/24 03:08:56;;;;;;;8.88;7.25;;;7.20;99.90;;;;;;5106982;27;20046;-70
2022/04/24 03:11:22;;;;;;;10.73;7.18;;;7.20;99.90;;;;;;5123113;27;20065;-70
2022/04/24 03:13:47;;;;;;;9.73;7.70;;;7.20;99.90;;;;;;5106776;27;20253;-71
2022/04/24 03:16:13;;;;;;;10.55;7.57;;;7.20;99.90;;;;;;5110355;27;20102;-72
2022/04/24 03:18:39;;;;;;;9.80;7.75;;;7.20;99.90;;;;;;5106135;27;20050;-71
2022/04/24 03:21:04;;;;;;;8.50;6.70;;;7.20;99.90;;;;;;5108746;27;20034;-70
2022/04/24 03:23:30;;;;;;;9.93;8.57;;;7.20;99.90;;;;;;5128272;27;20075;-70
2022/04/24 03:26:17;;;;;;;10.07;7.97;;;7.20;99.90;;;;;;5134852;27;20128;-71
2022/04/24 03:28:42;;;;;;;9.32;7.07;;;7.20;99.90;;;;;;5115380;27;20031;-71
2022/04/24 03:31:08;;;;;;;10.35;7.47;;;7.20;99.90;;;;;;5135281;27;20026;-71
2022/04/24 03:33:34;;;;;;;9.35;7.65;;;7.20;99.90;;;;;;5093487;27;20256;-71
2022/04/24 03:35:59;;;;;;;11.98;7.95;;;7.20;99.90;;;;;;5110034;27;20039;-71
2022/04/24 03:38:25;;;;;;;9.18;7.72;;;7.20;99.90;;;;;;5101572;27;20035;-72
2022/04/24 03:40:51;;;;;;;9.93;7.82;;;7.30;99.90;;;;;;5116097;27;20221;-71
2022/04/24 03:43:16;;;;;;;9.95;7.30;;;7.20;99.90;;;;;;5125000;28;20325;-70
2022/04/24 03:45:42;;;;;;;9.25;7.40;;;7.20;99.90;;;;;;5126184;28;20030;-70
2022/04/24 03:48:10;;;;;;;11.63;7.13;;;7.20;99.90;;;;;;5123672;27;20190;-70
2022/04/24 03:50:36;;;;;;;8.63;7.45;;;7.20;99.90;;;;;;5120496;27;20066;-70
2022/04/24 03:53:02;;;;;;;10.02;8.30;;;7.20;99.90;;;;;;5123799;27;20023;-71
2022/04/24 03:55:29;;;;;;;10.50;7.68;;;7.30;99.90;;;;;;5125537;27;20301;-70
2022/04/24 03:57:55;;;;;;;9.45;7.00;;;7.20;99.90;;;;;;5112041;27;20068;-70
2022/04/24 04:00:20;;;;;;;7.90;7.10;;;7.30;99.90;;;;;;5111456;28;20232;-71
2022/04/24 04:02:47;;;;;;;9.27;7.75;;;7.30;99.90;;;;;;5122644;28;20064;-70
2022/04/24 04:05:14;;;;;;;9.82;7.65;;;7.60;99.90;;;;;;5091436;27;20031;-70
2022/04/24 04:07:40;;;;;;;10.07;8.57;;;7.20;99.90;;;;;;5089060;28;20055;-70
2022/04/24 04:10:07;;;;;;;8.98;7.28;;;7.30;99.90;;;;;;5105108;27;20199;-70
2022/04/24 04:12:32;;;;;;;9.00;7.00;;;7.20;99.90;;;;;;5115083;28;20031;-70
2022/04/24 04:15:03;;;;;;;8.90;7.18;;;7.30;99.90;;;;;;5121596;27;20042;-70
2022/04/24 04:17:29;;;;;;;9.85;7.25;;;7.30;99.90;;;;;;5137752;27;20030;-71
2022/04/24 04:19:55;;;;;;;9.32;7.00;;;7.20;99.90;;;;;;5125511;27;20321;-72
2022/04/24 04:22:21;;;;;;;9.70;7.40;;;7.30;99.90;;;;;;5126696;27;20031;-70
2022/04/24 04:24:46;;;;;;;8.70;6.93;;;7.20;99.90;;;;;;5111257;27;20101;-70
2022/04/24 04:27:12;;;;;;;8.82;7.15;;;7.20;99.90;;;;;;5111079;27;20068;-71
2022/04/24 04:29:38;;;;;;;9.02;7.20;;;7.20;99.90;;;;;;5107639;27;20511;-71
2022/04/24 04:32:04;;;;;;;9.23;7.18;;;7.10;99.90;;;;;;5108959;27;20082;-71
2022/04/24 04:34:30;;;;;;;9.57;7.65;;;7.10;99.90;;;;;;5126869;27;20214;-71
2022/04/24 04:36:56;;;;;;;8.68;7.00;;;7.20;99.90;;;;;;5132481;27;20029;-70
2022/04/24 04:39:22;;;;;;;11.05;7.50;;;7.20;99.90;;;;;;5147363;27;20213;-71
2022/04/24 04:41:47;;;;;;;10.80;7.97;;;7.30;99.90;;;;;;5129969;27;20055;-70
2022/04/24 04:44:14;;;;;;;8.35;6.85;;;7.30;99.90;;;;;;5130286;27;20027;-71
2022/04/24 04:46:39;;;;;;;9.27;7.47;;;7.30;99.90;;;;;;5121536;27;20031;-71
2022/04/24 04:49:05;;;;;;;9.15;7.18;;;7.30;99.90;;;;;;5136225;27;20087;-71
2022/04/24 04:51:31;;;;;;;9.82;7.40;;;7.30;99.90;;;;;;5109268;27;20042;-71
2022/04/24 04:53:59;;;;;;;9.68;7.25;;;7.30;99.90;;;;;;5109424;27;20038;-71
2022/04/24 04:56:25;;;;;;;10.02;8.20;;;7.40;99.90;;;;;;5109564;27;20070;-71
2022/04/24 04:58:50;;;;;;;11.98;7.70;;;7.40;99.90;;;;;;5125871;27;20030;-71
2022/04/24 05:01:16;;;;;;;8.20;6.75;;;7.40;99.90;;;;;;5129943;27;20027;-71
2022/04/24 05:03:45;;;;;;;10.55;7.93;;;7.50;99.90;;;;;;5118372;27;20038;-71
2022/04/24 05:06:10;;;;;;;10.98;7.45;;;7.50;99.90;;;;;;5116379;28;20055;-71
2022/04/24 05:08:36;;;;;;;9.43;7.47;;;7.60;99.90;;;;;;5113936;28;20218;-71
2022/04/24 05:11:02;;;;;;;11.80;7.63;;;7.60;99.90;;;;;;5104987;27;20333;-72
2022/04/24 05:13:28;;;;;;;11.15;7.78;;;7.70;99.90;;;;;;5090637;27;20189;-72
2022/04/24 05:15:54;;;;;;;10.88;7.60;;;7.70;99.90;;;;;;5111123;27;20035;-71
2022/04/24 05:18:20;;;;;;;11.50;7.47;;;7.70;99.90;;;;;;5117357;27;20038;-72
2022/04/24 05:20:46;;;;;;;10.80;8.10;;;7.80;99.90;;;;;;5114604;28;20092;-72
2022/04/24 05:23:12;;;;;;;12.50;8.60;;;7.90;99.90;;;;;;5125643;27;20024;-72
2022/04/24 05:25:37;;;;;;;10.18;7.65;;;8.00;99.90;;;;;;5129609;27;20095;-70
2022/04/24 05:28:04;;;;;;;12.27;8.43;;;8.00;99.90;;;;;;5123003;27;20027;-70
2022/04/24 05:30:30;;;;;;;12.43;8.25;;;8.10;99.90;;;;;;5130660;27;20422;-71
2022/04/24 05:32:56;;;;;;;10.43;7.85;;;8.20;99.90;;;;;;5100750;27;20041;-71
2022/04/24 05:35:25;;;;;;;9.90;7.90;;;8.20;99.90;;;;;;5102399;28;20028;-71
2022/04/24 05:37:51;;;;;;;11.43;8.95;;;8.30;99.90;;;;;;5099180;28;20036;-71
2022/04/24 05:40:17;;;;;;;12.45;9.02;;;8.40;99.90;;;;;;5128337;27;20019;-71
2022/04/24 05:42:46;;;;;;;10.77;8.20;;;8.50;99.90;;;;;;5128301;27;20032;-71
2022/04/24 05:45:14;;;;;;;10.88;7.47;;;8.50;99.90;;;;;;5119485;27;20027;-70
2022/04/24 05:47:42;;;;;;;12.27;9.18;;;8.60;99.90;;;;;;5111989;27;20043;-70
2022/04/24 05:50:08;;;;;;;10.63;7.68;;;8.60;99.90;;;;;;5092733;27;21611;-70
2022/04/24 05:52:34;;;;;;;13.48;8.82;;;8.70;99.90;;;;;;5119478;27;20106;-71
2022/04/24 05:54:59;;;;;;;10.00;7.57;;;8.70;99.90;;;;;;5105300;27;20042;-69
2022/04/24 05:57:25;;;;;;;10.30;7.45;;;8.70;99.90;;;;;;5123857;27;20352;-70
2022/04/24 05:59:50;;;;;;;8.68;7.40;;;8.70;99.90;;;;;;5110478;27;20213;-71
2022/04/24 06:02:16;;;;;;;11.27;7.80;;;8.90;99.90;;;;;;5107058;27;20280;-71
2022/04/24 06:04:42;;;;;;;8.65;7.13;;;9.00;99.90;;;;;;5115353;28;20066;-71
2022/04/24 06:07:08;;;;;;;9.15;6.30;;;9.00;99.90;;;;;;5110770;27;20057;-71
2022/04/24 06:09:44;;;;;;;9.32;6.53;;;9.00;99.90;;;;;;5078657;28;20040;-71
2022/04/24 06:12:10;;;;;;;9.00;6.43;;;9.30;99.90;;;;;;5124130;27;20039;-70
2022/04/24 06:14:35;;;;;;;6.38;5.60;;;9.00;99.90;;;;;;5114811;28;20091;-70
2022/04/24 06:17:01;;;;;;;7.25;4.90;;;9.10;99.90;;;;;;5110122;27;20340;-70
2022/04/24 06:19:27;;;;;;;6.80;5.53;;;9.10;99.90;;;;;;5113623;27;20015;-70
2022/04/24 06:21:53;;;;;;;10.20;6.05;;;9.10;99.90;;;;;;5116712;27;20028;-70
2022/04/24 06:24:19;;;;;;;7.43;5.13;;;9.20;99.90;;;;;;5106065;28;20050;-69
2022/04/24 06:26:45;;;;;;;9.68;5.00;;;9.20;99.90;;;;;;5133837;27;20031;-71
2022/04/24 06:29:11;;;;;;;7.82;5.05;;;9.20;99.90;;;;;;5121426;27;20211;-70
2022/04/24 06:31:37;;;;;;;7.38;4.68;;;9.30;99.90;;;;;;5120584;28;20024;-70
2022/04/24 06:34:03;;;;;;;6.93;4.28;;;9.30;99.90;;;;;;5109166;27;20164;-70
2022/04/24 06:36:28;;;;;;;5.57;4.00;;;9.30;99.90;;;;;;5087815;28;20114;-70
2022/04/24 06:38:54;;;;;;;7.95;4.90;;;9.40;99.90;;;;;;5103733;28;20176;-70
2022/04/24 06:41:20;;;;;;;6.22;3.28;;;9.50;99.90;;;;;;5103424;28;20028;-71
2022/04/24 06:43:45;;;;;;;7.22;4.05;;;9.50;99.90;;;;;;5095963;27;20031;-71
2022/04/24 06:46:11;;;;;;;6.22;3.78;;;9.70;99.90;;;;;;5109667;27;20067;-70
2022/04/24 06:48:37;;;;;;;6.13;3.63;;;9.80;99.90;;;;;;5117209;28;20027;-71
2022/04/24 06:51:05;;;;;;;5.85;4.22;;;9.90;99.90;;;;;;5080106;28;20269;-71
2022/04/24 06:53:31;;;;;;;5.78;3.67;;;9.90;99.90;;;;;;5101237;28;20102;-70
2022/04/24 06:55:57;;;;;;;5.20;3.45;;;10.00;99.90;;;;;;5104373;28;20043;-70
2022/04/24 06:58:25;;;;;;;4.97;3.35;;;10.20;99.90;;;;;;5115035;28;20039;-70
2022/04/24 07:00:52;;;;;;;4.40;3.28;;;10.30;99.90;;;;;;5128368;27;20031;-71
2022/04/24 07:03:21;;;;;;;5.03;2.95;;;10.30;99.90;;;;;;5136173;27;20068;-71
2022/04/24 07:05:53;;;;;;;4.43;2.75;;;10.50;99.90;;;;;;5122878;27;20224;-69
2022/04/24 07:08:21;;;;;;;5.28;3.05;;;10.60;99.90;;;;;;5116766;27;20043;-71
2022/04/24 07:10:47;;;;;;;4.60;2.45;;;10.70;99.90;;;;;;5109765;27;20038;-70
2022/04/24 07:13:12;;;;;;;5.15;2.72;;;10.80;99.90;;;;;;5121733;27;20039;-72
2022/04/24 07:15:41;;;;;;;2.85;2.33;;;10.90;99.90;;;;;;5136792;27;20050;-71
2022/04/24 07:18:07;;;;;;;5.35;2.80;;;10.90;99.90;;;;;;5138781;27;20046;-70
2022/04/24 07:20:33;;;;;;;5.55;2.47;;;11.10;99.90;;;;;;5090738;27;20045;-69
2022/04/24 07:23:01;;;;;;;4.53;2.63;;;11.20;99.90;;;;;;5089191;27;20035;-70
2022/04/24 07:25:32;;;;;;;2.92;2.17;;;11.10;99.90;;;;;;5124885;27;20038;-71
2022/04/24 07:28:04;;;;;;;3.47;2.40;;;11.20;99.90;;;;;;5131869;27;20332;-70
2022/04/24 07:30:35;;;;;;;4.35;2.05;;;11.20;99.90;;;;;;5116757;28;20027;-72
2022/04/24 07:33:01;;;;;;;4.35;2.63;;;11.40;99.90;;;;;;5107004;27;20500;-70
2022/04/24 07:35:33;;;;;;;3.20;2.47;;;11.70;99.90;;;;;;5117852;27;20030;-70
2022/04/24 07:37:58;;;;;;;4.25;2.28;;;11.80;99.90;;;;;;5127791;27;20103;-69
2022/04/24 07:40:26;;;;;;;3.13;2.40;;;11.60;99.90;;;;;;5123052;27;20325;-69
2022/04/24 07:42:57;;;;;;;4.95;2.80;;;11.80;99.90;;;;;;5122713;27;20251;-70
2022/04/24 07:45:30;;;;;;;3.97;2.58;;;12.00;99.90;;;;;;5123709;28;20027;-69
2022/04/24 07:47:57;;;;;;;3.65;2.40;;;11.70;99.90;;;;;;5107924;27;20104;-69
2022/04/24 07:50:25;;;;;;;3.20;2.90;;;11.80;99.90;;;;;;5114942;27;20347;-70
2022/04/24 07:53:00;;;;;;;3.45;2.53;;;11.70;99.90;;;;;;5145534;27;20214;-70
2022/04/24 07:55:26;;;;;;;3.30;2.72;;;11.60;99.90;;;;;;5139164;27;20051;-69
2022/04/24 07:58:01;;;;;;;4.32;2.67;;;11.80;99.90;;;;;;5135004;27;20217;-71
2022/04/24 08:00:29;;;;;;;4.15;2.50;;;11.80;99.90;;;;;;5132123;27;20332;-70
2022/04/24 08:03:06;;;;;;;3.92;2.60;;;11.80;99.90;;;;;;5146042;27;20027;-70
2022/04/24 08:05:41;;;;;;;4.63;2.95;;;11.90;99.90;;;;;;5113787;27;20038;-69
2022/04/24 08:08:09;;;;;;;3.90;2.92;;;12.00;99.90;;;;;;5141954;27;20329;-70
2022/04/24 08:10:37;;;;;;;5.35;2.97;;;12.00;99.90;;;;;;5146213;27;20038;-70
2022/04/24 08:13:05;;;;;;;4.57;2.50;;;12.00;99.90;;;;;;5146314;27;20231;-70
2022/04/24 08:15:34;;;;;;;6.03;3.17;;;12.20;99.90;;;;;;5115375;27;20031;-69
2022/04/24 08:18:01;;;;;;;6.30;2.47;;;12.20;99.90;;;;;;5129381;27;20255;-70
2022/04/24 08:20:27;;;;;;;5.53;2.72;;;12.30;99.90;;;;;;5133984;27;20042;-70
2022/04/24 08:22:54;;;;;;;5.68;2.97;;;12.50;99.90;;;;;;5127886;27;20233;-70
2022/04/24 08:25:24;;;;;;;4.15;3.00;;;12.40;99.90;;;;;;5138473;27;20031;-70
2022/04/24 08:27:51;;;;;;;5.07;3.20;;;12.60;99.90;;;;;;5118642;27;20031;-70
2022/04/24 08:30:19;;;;;;;6.00;3.22;;;12.70;99.90;;;;;;5139509;27;20367;-68
2022/04/24 08:32:46;;;;;;;3.38;2.95;;;12.70;99.90;;;;;;5142245;27;20035;-68
2022/04/24 08:35:15;;;;;;;4.22;2.60;;;12.50;99.90;;;;;;5110752;27;20041;-69
2022/04/24 08:37:41;;;;;;;4.43;2.88;;;12.60;99.90;;;;;;5120768;27;20031;-70
2022/04/24 08:40:09;;;;;;;6.03;2.83;;;12.70;99.90;;;;;;5138263;27;20030;-69
2022/04/24 08:42:35;;;;;;;4.38;2.75;;;12.80;99.90;;;;;;5121986;27;20113;-69
2022/04/24 08:45:03;;;;;;;4.07;3.08;;;12.80;99.90;;;;;;5145615;27;20339;-69
2022/04/24 08:47:29;;;;;;;4.50;3.03;;;12.70;99.90;;;;;;5114553;27;20051;-70
2022/04/24 08:50:00;;;;;;;4.80;2.17;;;12.70;99.90;;;;;;5135984;27;20039;-69
2022/04/24 08:52:33;;;;;;;5.50;2.78;;;12.70;99.90;;;;;;5123951;27;20049;-70
2022/04/24 08:54:59;;;;;;;5.38;3.00;;;13.00;99.90;;;;;;5121785;27;20065;-71
2022/04/24 08:57:26;;;;;;;5.60;3.20;;;13.30;99.90;;;;;;5121798;27;20250;-68
2022/04/24 08:59:56;;;;;;;5.88;3.60;;;13.30;99.90;;;;;;5126080;27;20043;-68
2022/04/24 09:02:22;;;;;;;5.82;3.50;;;12.90;99.90;;;;;;5125926;27;20344;-67
2022/04/24 09:04:48;;;;;;;6.40;3.33;;;13.20;99.90;;;;;;5105310;27;20031;-69
2022/04/24 09:07:17;;;;;;;7.93;3.38;;;13.00;99.90;;;;;;5134052;27;20066;-69
2022/04/24 09:09:49;;;;;;;3.92;2.40;;;13.20;99.90;;;;;;5132844;27;20091;-69
2022/04/24 09:12:23;;;;;;;4.35;3.17;;;13.20;99.90;;;;;;5125949;27;20033;-69
2022/04/24 09:14:54;;;;;;;4.07;2.78;;;13.40;99.90;;;;;;5128959;27;20263;-69
2022/04/24 09:17:25;;;;;;;4.13;2.92;;;13.20;99.90;;;;;;5127791;27;20035;-69
2022/04/24 09:19:52;;;;;;;4.10;3.20;;;13.30;99.90;;;;;;5114349;27;20191;-69
2022/04/24 09:22:27;;;;;;;6.22;3.13;;;13.20;99.90;;;;;;5110872;27;20156;-69
2022/04/24 09:24:56;;;;;;;4.93;2.95;;;13.20;99.90;;;;;;5130876;27;20038;-69
2022/04/24 09:27:27;;;;;;;4.18;2.88;;;13.50;99.90;;;;;;5126890;27;20093;-70
2022/04/24 09:30:26;;;;;;;3.30;2.80;;;13.60;99.90;;;;;;5111563;27;20026;-68
2022/04/24 09:32:54;;;;;;;5.30;2.90;;;13.50;99.90;;;;;;5113386;27;20063;-70
2022/04/24 09:35:32;;;;;;;3.78;2.65;;;13.60;99.90;;;;;;5121564;27;20305;-68
2022/04/24 09:38:17;;;;;;;3.92;2.92;;;14.20;99.90;;;;;;5123191;27;20037;-70
2022/04/24 09:40:44;;;;;;;2.55;2.33;;;14.40;99.90;;;;;;5142333;27;20035;-70
2022/04/24 09:43:10;;;;;;;3.88;2.17;;;14.70;99.90;;;;;;5124246;27;20075;-72
2022/04/24 09:45:37;;;;;;;5.00;2.40;;;14.20;99.90;;;;;;5120343;27;20035;-70
2022/04/24 09:48:14;;;;;;;3.40;2.40;;;14.30;99.90;;;;;;5123679;27;20035;-68
2022/04/24 09:50:41;;;;;;;2.75;2.25;;;15.00;99.90;;;;;;5125073;27;20389;-69
2022/04/24 09:53:08;;;;;;;4.88;2.78;;;14.60;99.90;;;;;;5121590;27;20041;-70
2022/04/24 09:55:34;;;;;;;4.05;2.30;;;15.00;99.90;;;;;;5106852;27;20106;-70
2022/04/24 09:58:01;;;;;;;3.95;2.40;;;15.10;99.90;;;;;;5123426;27;20031;-70
2022/04/24 10:00:28;;;;;;;4.88;2.60;;;14.80;99.90;;;;;;5109461;27;20035;-70
2022/04/24 10:02:55;;;;;;;3.55;2.17;;;15.30;99.90;;;;;;5098846;27;20023;-69
2022/04/24 10:05:20;;;;;;;3.97;2.53;;;15.40;99.90;;;;;;5109720;27;20023;-70
2022/04/24 10:07:46;;;;;;;3.35;2.45;;;15.60;99.90;;;;;;5109938;28;20044;-69
2022/04/24 10:10:15;;;;;;;2.75;2.25;;;15.40;99.90;;;;;;5121434;28;20214;-69
2022/04/24 10:12:43;;;;;;;3.65;2.92;;;15.40;99.90;;;;;;5118036;27;20098;-69
2022/04/24 10:15:14;;;;;;;3.33;2.55;;;15.30;99.90;;;;;;5122729;27;20099;-69
2022/04/24 10:17:46;;;;;;;3.88;2.30;;;15.00;99.90;;;;;;5128112;27;20035;-70
2022/04/24 10:20:44;;;;;;;3.47;2.45;;;15.10;99.90;;;;;;5108221;27;20038;-69
2022/04/24 10:23:17;;;;;;;3.75;2.47;;;15.10;99.90;;;;;;5133179;27;20038;-69
2022/04/24 10:25:43;;;;;;;2.55;1.98;;;15.10;99.90;;;;;;5101142;27;20084;-69
2022/04/24 10:28:12;;;;;;;3.28;2.28;;;14.90;99.90;;;;;;5118397;27;20035;-68
2022/04/24 10:30:39;;;;;;;5.50;2.50;;;15.00;99.90;;;;;;5121840;27;20043;-68
2022/04/24 10:33:18;;;;;;;2.97;2.30;;;15.50;99.90;;;;;;5136748;27;20043;-69
2022/04/24 10:35:48;;;;;;;3.63;2.25;;;15.60;99.90;;;;;;5122945;27;20035;-69
2022/04/24 10:38:14;;;;;;;3.92;2.28;;;15.30;99.90;;;;;;5106150;27;20127;-69
2022/04/24 10:40:40;;;;;;;2.83;2.30;;;15.60;99.90;;;;;;5112191;27;20281;-69
2022/04/24 10:43:10;;;;;;;4.38;2.40;;;15.50;99.90;;;;;;5102547;28;20035;-68
2022/04/24 10:45:46;;;;;;;3.90;1.90;;;15.60;99.90;;;;;;5102479;27;20452;-69
2022/04/24 10:48:17;;;;;;;2.95;1.85;;;15.30;99.90;;;;;;5140863;27;20137;-69
2022/04/24 10:50:47;;;;;;;2.80;2.20;;;15.00;99.90;;;;;;5124889;27;20088;-68
2022/04/24 10:53:13;;;;;;;2.72;1.95;;;15.60;99.90;;;;;;5108316;27;20035;-69
2022/04/24 10:55:39;;;;;;;2.70;2.20;;;15.40;99.90;;;;;;5116946;27;20043;-69
2022/04/24 10:58:05;;;;;;;2.70;1.90;;;14.90;99.90;;;;;;5114836;27;20043;-69
2022/04/24 11:00:34;;;;;;;3.65;2.00;;;14.80;99.90;;;;;;5106489;27;20039;-68
2022/04/24 11:03:13;;;;;;;3.08;2.25;;;14.90;99.90;;;;;;5114126;27;20042;-69
2022/04/24 11:05:43;;;;;;;4.03;2.30;;;15.30;99.90;;;;;;5104530;27;20229;-70
2022/04/24 11:08:17;;;;;;;2.65;2.25;;;15.70;99.90;;;;;;5100367;28;20433;-70
2022/04/24 11:10:44;;;;;;;2.77;1.87;;;15.60;99.90;;;;;;5110461;27;20145;-69
2022/04/24 11:13:16;;;;;;;4.38;2.70;;;15.60;99.90;;;;;;5098349;28;20160;-70
2022/04/24 11:15:44;;;;;;;5.50;2.55;;;15.60;99.90;;;;;;5114287;27;20299;-70
2022/04/24 11:18:24;;;;;;;4.95;2.50;;;16.40;99.90;;;;;;5109474;27;20046;-71
2022/04/24 11:21:03;;;;;;;6.57;3.03;;;16.00;99.90;;;;;;5096325;27;20119;-71
2022/04/24 11:23:32;;;;;;;3.38;2.35;;;16.30;99.90;;;;;;5114942;27;20385;-70
2022/04/24 11:25:59;;;;;;;3.67;2.88;;;16.30;99.90;;;;;;5112590;28;20076;-70
2022/04/24 11:28:45;;;;;;;5.05;2.72;;;16.30;99.90;;;;;;5097027;28;20067;-69
2022/04/24 11:31:19;;;;;;;7.10;2.70;;;15.50;99.90;;;;;;5103545;27;20393;-70
2022/04/24 11:33:55;;;;;;;4.55;3.08;;;15.10;99.90;;;;;;5105820;28;20342;-71
2022/04/24 11:36:22;;;;;;;3.05;2.30;;;15.20;99.90;;;;;;5107572;28;20114;-71
2022/04/24 11:38:49;;;;;;;3.90;2.90;;;15.20;99.90;;;;;;5114612;27;20134;-70
2022/04/24 11:41:14;;;;;;;3.63;3.10;;;15.10;99.90;;;;;;5108648;27;20293;-71
2022/04/24 11:43:41;;;;;;;5.10;3.45;;;15.40;99.90;;;;;;5115611;27;20279;-68
2022/04/24 11:51:36;;;;;;;4.15;3.30;;;15.00;99.90;;;;;;5117595;28;20202;-70
2022/04/24 11:54:02;;;;;;;4.22;3.05;;;15.00;99.90;;;;;;5117722;28;20066;-69
2022/04/24 11:56:32;;;;;;;4.43;3.03;;;15.00;99.90;;;;;;5117380;28;20039;-70
2022/04/24 11:59:14;;;;;;;6.53;3.70;;;15.00;99.90;;;;;;5114557;28;20039;-69
2022/04/24 12:01:41;;;;;;;4.22;3.17;;;14.90;99.90;;;;;;5118285;28;20031;-68
2022/04/24 12:04:06;;;;;;;4.80;3.15;;;15.30;99.90;;;;;;5113535;28;20102;-69
2022/04/24 12:06:45;;;;;;;4.57;3.50;;;15.70;99.90;;;;;;5119862;27;20039;-69
2022/04/24 12:09:24;;;;;;;6.53;3.60;;;14.50;99.90;;;;;;5087888;27;20062;-68
2022/04/24 12:11:50;;;;;;;5.32;3.13;;;14.80;99.90;;;;;;5110610;27;20111;-69
2022/04/24 12:14:17;;;;;;;5.03;3.25;;;15.10;99.90;;;;;;5123303;27;20042;-70
2022/04/24 12:16:48;;;;;;;5.05;3.40;;;15.10;99.90;;;;;;5116620;27;21222;-70
2022/04/24 12:19:18;;;;;;;5.25;3.38;;;15.10;99.90;;;;;;5093675;27;20023;-69
2022/04/24 12:21:51;;;;;;;5.60;2.88;;;15.20;99.90;;;;;;5122206;27;20050;-69
2022/04/24 12:24:18;;;;;;;4.70;3.25;;;15.60;99.90;;;;;;5127929;27;20041;-69
2022/04/24 12:26:52;;;;;;;3.67;3.25;;;14.70;99.90;;;;;;5116024;27;20249;-70
2022/04/24 12:29:18;;;;;;;5.38;3.05;;;15.20;99.90;;;;;;5117595;27;20258;-70
2022/04/24 12:32:04;;;;;;;4.35;2.83;;;15.20;99.90;;;;;;5112288;27;20054;-70
2022/04/24 12:34:36;;;;;;;6.00;2.42;;;15.10;99.90;;;;;;5117318;27;20045;-69
2022/04/24 12:37:02;;;;;;;4.30;2.88;;;15.10;99.90;;;;;;5120398;27;20315;-69
2022/04/24 12:39:28;;;;;;;3.65;3.15;;;15.20;99.90;;;;;;5108309;27;20049;-69
2022/04/24 12:41:55;;;;;;;5.03;3.20;;;15.40;99.90;;;;;;5109251;27;20236;-69
2022/04/24 12:44:21;;;;;;;4.00;2.70;;;15.30;99.90;;;;;;5118529;27;20035;-69
2022/04/24 12:46:47;;;;;;;2.90;2.60;;;15.80;99.90;;;;;;5095484;27;20318;-68
2022/04/24 12:49:39;;;;;;;5.57;3.28;;;15.50;99.90;;;;;;5106459;27;20039;-69
2022/04/24 12:52:05;;;;;;;4.18;2.88;;;15.30;99.90;;;;;;5116150;27;20035;-68
2022/04/24 12:54:46;;;;;;;3.83;3.17;;;15.00;99.90;;;;;;5110070;27;20325;-68
2022/04/24 12:57:12;;;;;;;3.55;3.03;;;15.00;99.90;;;;;;5099121;27;20128;-69
2022/04/24 12:59:39;;;;;;;4.82;3.45;;;14.80;99.90;;;;;;5116691;27;20034;-68
2022/04/24 13:02:05;;;;;;;3.95;3.38;;;14.90;99.90;;;;;;5094229;27;20053;-68